createdAt,value
2019-01-20T00:01:59.007Z,-3.30
2019-01-20T00:04:29.696Z,-3.30
2019-01-20T00:07:13.081Z,-3.30
2019-01-20T00:09:43.707Z,-3.30
2019-01-20T00:12:14.262Z,-3.40
2019-01-20T00:14:44.908Z,-3.40
2019-01-20T00:17:15.412Z,-3.50
2019-01-20T00:19:45.924Z,-3.50
2019-01-20T00:22:16.610Z,-3.50
2019-01-20T00:24:47.078Z,-3.50
2019-01-20T00:27:17.809Z,-3.60
2019-01-20T00:29:49.567Z,-3.60
2019-01-20T00:32:20.252Z,-3.50
2019-01-20T00:34:50.750Z,-3.50
2019-01-20T00:37:22.232Z,-3.50
2019-01-20T00:39:52.839Z,-3.40
2019-01-20T00:42:23.548Z,-3.50
2019-01-20T00:44:54.274Z,-3.50
2019-01-20T00:47:25.062Z,-3.50
2019-01-20T00:49:55.740Z,-3.50
2019-01-20T00:52:26.302Z,-3.50
2019-01-20T00:54:56.915Z,-3.40
2019-01-20T00:57:27.607Z,-3.50
2019-01-20T00:59:58.470Z,-3.60
2019-01-20T01:02:29.221Z,-3.60
2019-01-20T01:04:59.715Z,-3.70
2019-01-20T01:07:30.951Z,-3.60
2019-01-20T01:10:01.642Z,-3.70
2019-01-20T01:12:32.451Z,-3.70
2019-01-20T01:15:03.043Z,-3.70
2019-01-20T01:17:33.691Z,-3.70
2019-01-20T01:20:05.593Z,-3.80
2019-01-20T01:22:36.105Z,-3.70
2019-01-20T01:25:08.541Z,-3.80
2019-01-20T01:27:39.205Z,-3.80
2019-01-20T01:30:13.475Z,-3.80
2019-01-20T01:32:44.012Z,-3.70
2019-01-20T01:35:14.650Z,-3.70
2019-01-20T01:37:45.523Z,-3.80
2019-01-20T01:40:17.452Z,-3.70
2019-01-20T01:42:47.994Z,-3.80
2019-01-20T01:45:20.364Z,-3.80
2019-01-20T01:47:51.175Z,-3.80
2019-01-20T01:50:21.900Z,-3.80
2019-01-20T01:52:52.737Z,-3.90
2019-01-20T01:55:23.366Z,-3.90
2019-01-20T01:57:54.039Z,-3.90
2019-01-20T02:00:25.448Z,-3.90
2019-01-20T02:02:55.957Z,-3.90
2019-01-20T02:05:26.742Z,-3.90
2019-01-20T02:07:57.394Z,-3.90
2019-01-20T02:10:27.910Z,-3.80
2019-01-20T02:12:58.702Z,-3.90
2019-01-20T02:15:29.140Z,-4.00
2019-01-20T02:17:59.864Z,-4.00
2019-01-20T02:20:30.501Z,-4.00
2019-01-20T02:23:01.080Z,-4.00
2019-01-20T02:25:32.058Z,-4.20
2019-01-20T02:28:03.090Z,-4.40
2019-01-20T02:30:33.880Z,-4.30
2019-01-20T02:33:04.771Z,-4.30
2019-01-20T02:35:35.461Z,-4.30
2019-01-20T02:38:06.232Z,-4.20
2019-01-20T02:40:36.970Z,-4.30
2019-01-20T02:43:07.883Z,-4.40
2019-01-20T02:45:38.581Z,-4.40
2019-01-20T02:48:09.203Z,-4.40
2019-01-20T02:50:39.953Z,-4.20
2019-01-20T02:53:10.630Z,-4.20
2019-01-20T02:55:42.388Z,-4.10
2019-01-20T02:58:13.352Z,-4.00
2019-01-20T03:00:44.058Z,-3.90
2019-01-20T03:03:14.680Z,-3.80
2019-01-20T03:05:52.369Z,-3.80
2019-01-20T03:08:23.123Z,-3.80
2019-01-20T03:10:54.305Z,-3.80
2019-01-20T03:13:24.912Z,-3.80
2019-01-20T03:15:55.385Z,-3.90
2019-01-20T03:18:25.957Z,-3.80
2019-01-20T03:20:56.966Z,-3.90
2019-01-20T03:23:27.672Z,-3.90
2019-01-20T03:25:58.143Z,-3.90
2019-01-20T03:28:28.825Z,-3.80
2019-01-20T03:30:59.384Z,-3.80
2019-01-20T03:33:29.793Z,-3.70
2019-01-20T03:36:00.332Z,-3.70
2019-01-20T03:38:31.955Z,-3.70
2019-01-20T03:41:02.554Z,-3.60
2019-01-20T03:43:33.009Z,-3.60
2019-01-20T03:46:03.797Z,-3.60
2019-01-20T03:48:34.647Z,-3.50
2019-01-20T03:51:05.314Z,-3.50
2019-01-20T03:53:35.982Z,-3.50
2019-01-20T03:56:06.676Z,-3.40
2019-01-20T03:58:37.458Z,-3.40
2019-01-20T04:01:08.155Z,-3.30
2019-01-20T04:03:39.067Z,-3.30
2019-01-20T04:06:09.651Z,-3.30
2019-01-20T04:08:40.166Z,-3.20
2019-01-20T04:11:10.769Z,-3.20
2019-01-20T04:13:41.243Z,-3.20
2019-01-20T04:16:12.243Z,-3.10
2019-01-20T04:18:42.992Z,-3.10
2019-01-20T04:21:13.811Z,-3.10
2019-01-20T04:23:44.563Z,-3.10
2019-01-20T04:26:15.030Z,-3.10
2019-01-20T04:28:45.551Z,-3.00
2019-01-20T04:31:16.065Z,-3.00
2019-01-20T04:33:46.713Z,-3.00
2019-01-20T04:36:17.357Z,-3.10
2019-01-20T04:38:47.865Z,-3.00
2019-01-20T04:41:18.855Z,-3.10
2019-01-20T04:43:49.633Z,-3.00
2019-01-20T04:46:20.099Z,-3.10
2019-01-20T04:48:50.899Z,-3.10
2019-01-20T04:51:21.417Z,-3.20
2019-01-20T04:53:52.226Z,-3.20
2019-01-20T04:56:22.834Z,-3.20
2019-01-20T04:58:53.283Z,-3.20
2019-01-20T05:01:23.850Z,-3.20
2019-01-20T05:03:54.313Z,-3.30
2019-01-20T05:06:25.050Z,-3.30
2019-01-20T05:08:55.508Z,-3.30
2019-01-20T05:11:26.274Z,-3.50
2019-01-20T05:13:57.048Z,-3.50
2019-01-20T05:16:27.908Z,-3.60
2019-01-20T05:18:58.362Z,-3.70
2019-01-20T05:21:28.866Z,-3.80
2019-01-20T05:23:59.543Z,-3.70
2019-01-20T05:26:30.110Z,-3.70
2019-01-20T05:29:00.604Z,-3.90
2019-01-20T05:31:31.086Z,-3.90
2019-01-20T05:34:01.890Z,-3.90
2019-01-20T05:36:32.358Z,-3.90
2019-01-20T05:39:03.397Z,-3.90
2019-01-20T05:41:33.916Z,-3.90
2019-01-20T05:44:04.694Z,-3.90
2019-01-20T05:46:35.259Z,-3.90
2019-01-20T05:49:06.096Z,-4.00
2019-01-20T05:51:36.923Z,-4.00
2019-01-20T05:54:07.768Z,-3.90
2019-01-20T05:56:38.597Z,-3.90
2019-01-20T05:59:09.356Z,-4.00
2019-01-20T06:01:39.995Z,-4.10
2019-01-20T06:04:10.651Z,-4.10
2019-01-20T06:06:41.206Z,-4.10
2019-01-20T06:09:11.867Z,-4.10
2019-01-20T06:11:42.836Z,-4.00
2019-01-20T06:14:13.281Z,-4.20
2019-01-20T06:16:43.712Z,-4.10
2019-01-20T06:19:14.139Z,-4.20
2019-01-20T06:21:45.035Z,-4.30
2019-01-20T06:24:15.612Z,-4.30
2019-01-20T06:26:48.303Z,-4.30
2019-01-20T06:29:19.228Z,-4.30
2019-01-20T06:31:49.708Z,-4.40
2019-01-20T06:34:20.603Z,-4.40
2019-01-20T06:36:51.069Z,-4.50
2019-01-20T06:39:21.505Z,-4.60
2019-01-20T06:41:52.149Z,-4.50
2019-01-20T06:44:22.763Z,-4.50
2019-01-20T06:46:53.305Z,-4.50
2019-01-20T06:49:23.830Z,-4.50
2019-01-20T06:51:54.247Z,-4.50
2019-01-20T06:54:24.784Z,-4.60
2019-01-20T06:56:55.358Z,-4.70
2019-01-20T06:59:26.021Z,-4.80
2019-01-20T07:01:56.414Z,-4.70
2019-01-20T07:04:27.036Z,-4.70
2019-01-20T07:06:57.466Z,-4.70
2019-01-20T07:09:28.366Z,-4.70
2019-01-20T07:11:59.009Z,-4.70
2019-01-20T07:14:29.860Z,-4.60
2019-01-20T07:17:00.484Z,-4.50
2019-01-20T07:19:31.440Z,-4.40
2019-01-20T07:22:01.948Z,-4.40
2019-01-20T07:24:32.674Z,-4.40
2019-01-20T07:27:03.677Z,-4.40
2019-01-20T07:29:34.420Z,-4.30
2019-01-20T07:32:05.079Z,-4.20
2019-01-20T07:34:35.858Z,-4.10
2019-01-20T07:37:06.610Z,-4.00
2019-01-20T07:39:37.341Z,-4.00
2019-01-20T07:42:07.994Z,-3.90
2019-01-20T07:44:38.893Z,-3.80
2019-01-20T07:47:10.115Z,-3.70
2019-01-20T07:49:40.999Z,-3.50
2019-01-20T07:52:11.690Z,-3.40
2019-01-20T07:54:42.351Z,-3.30
2019-01-20T07:57:12.945Z,-3.20
2019-01-20T07:59:43.776Z,-3.10
2019-01-20T08:02:14.755Z,-3.00
2019-01-20T08:04:45.263Z,-2.90
2019-01-20T08:07:15.977Z,-2.90
2019-01-20T08:09:46.845Z,-2.80
2019-01-20T08:12:23.508Z,-2.80
2019-01-20T08:14:49.469Z,-2.80
2019-01-20T08:17:20.282Z,-2.80
2019-01-20T08:19:51.233Z,-2.60
2019-01-20T08:22:22.005Z,-2.50
2019-01-20T08:24:52.558Z,-2.30
2019-01-20T08:27:23.302Z,-1.90
2019-01-20T08:29:54.054Z,-1.70
2019-01-20T08:32:25.222Z,-1.60
2019-01-20T08:34:56.154Z,-1.60
2019-01-20T08:37:28.909Z,-1.50
2019-01-20T08:39:59.260Z,-1.50
2019-01-20T08:42:30.041Z,-1.50
2019-01-20T08:45:00.634Z,-1.50
2019-01-20T08:47:57.923Z,-1.50
2019-01-20T08:50:28.508Z,-1.30
2019-01-20T08:52:59.560Z,-0.90
2019-01-20T08:55:31.644Z,-0.70
2019-01-20T08:58:02.735Z,-0.40
2019-01-20T09:00:34.957Z,-0.20
2019-01-20T09:03:05.808Z,-0.20
2019-01-20T09:05:36.461Z,-0.30
2019-01-20T09:08:09.101Z,-0.40
2019-01-20T09:10:39.821Z,-0.50
2019-01-20T09:13:11.335Z,-0.70
2019-01-20T09:15:42.089Z,-0.70
2019-01-20T09:18:12.927Z,-0.60
2019-01-20T09:20:43.406Z,-0.70
2019-01-20T09:23:13.975Z,-0.80
2019-01-20T09:25:44.643Z,-0.70
2019-01-20T09:28:15.293Z,-0.80
2019-01-20T09:30:46.015Z,-0.90
2019-01-20T09:33:24.296Z,-1.00
2019-01-20T09:35:48.657Z,-0.90
2019-01-20T09:38:19.405Z,-0.90
2019-01-20T09:40:49.917Z,-0.90
2019-01-20T09:43:20.729Z,-0.90
2019-01-20T09:45:52.111Z,-1.00
2019-01-20T09:48:22.692Z,-1.10
2019-01-20T09:50:53.312Z,-1.10
2019-01-20T09:53:23.921Z,-1.10
2019-01-20T09:55:54.655Z,-1.00
2019-01-20T09:58:25.496Z,-1.00
2019-01-20T10:00:56.333Z,-1.00
2019-01-20T10:03:27.452Z,-1.10
2019-01-20T10:05:59.312Z,-1.00
2019-01-20T10:08:30.288Z,-0.80
2019-01-20T10:11:02.114Z,-0.80
2019-01-20T10:13:37.892Z,-0.60
2019-01-20T10:16:13.338Z,-0.50
2019-01-20T10:18:44.174Z,-0.40
2019-01-20T10:21:15.134Z,-0.30
2019-01-20T10:23:45.906Z,-0.20
2019-01-20T10:26:16.719Z,-0.20
2019-01-20T10:28:47.268Z,-0.20
2019-01-20T10:31:17.727Z,-0.10
2019-01-20T10:33:48.234Z,-0.10
2019-01-20T10:36:19.020Z,0.00
2019-01-20T10:38:49.677Z,0.10
2019-01-20T10:41:20.149Z,0.10
2019-01-20T10:43:50.969Z,0.10
2019-01-20T10:46:21.374Z,0.10
2019-01-20T10:48:52.211Z,0.20
2019-01-20T10:51:23.003Z,0.20
2019-01-20T10:53:54.665Z,0.10
2019-01-20T10:56:25.639Z,0.10
2019-01-20T10:58:56.711Z,0.20
2019-01-20T11:01:27.685Z,0.30
2019-01-20T11:03:58.569Z,0.30
2019-01-20T11:06:29.265Z,0.20
2019-01-20T11:08:59.855Z,-0.10
2019-01-20T11:11:30.581Z,0.00
2019-01-20T11:14:01.499Z,0.30
2019-01-20T11:16:32.531Z,0.20
2019-01-20T11:19:03.472Z,0.40
2019-01-20T11:21:34.354Z,0.60
2019-01-20T11:24:05.523Z,0.80
2019-01-20T11:26:36.620Z,0.90
2019-01-20T11:29:07.295Z,1.00
2019-01-20T11:31:38.131Z,1.20
2019-01-20T11:34:09.030Z,1.20
2019-01-20T11:36:39.940Z,1.30
2019-01-20T11:39:11.504Z,1.30
2019-01-20T11:41:42.467Z,1.20
2019-01-20T11:44:16.996Z,1.30
2019-01-20T11:46:45.498Z,1.30
2019-01-20T11:49:16.299Z,1.40
2019-01-20T11:51:46.912Z,1.60
2019-01-20T11:54:17.616Z,1.60
2019-01-20T11:56:48.444Z,1.80
2019-01-20T11:59:19.012Z,1.70
2019-01-20T12:01:50.899Z,1.70
2019-01-20T12:04:21.504Z,1.60
2019-01-20T12:06:52.194Z,1.70
2019-01-20T12:09:22.724Z,1.60
2019-01-20T12:11:53.448Z,1.50
2019-01-20T12:14:24.411Z,1.50
2019-01-20T12:16:56.240Z,1.70
2019-01-20T12:19:26.724Z,1.90
2019-01-20T12:21:57.652Z,2.00
2019-01-20T12:24:28.135Z,2.10
2019-01-20T12:26:59.074Z,2.10
2019-01-20T12:29:29.592Z,2.20
2019-01-20T12:32:00.330Z,2.50
2019-01-20T12:34:31.960Z,2.50
2019-01-20T12:37:02.983Z,2.90
2019-01-20T12:39:33.801Z,3.10
2019-01-20T12:42:04.477Z,3.30
2019-01-20T12:44:35.343Z,4.00
2019-01-20T12:47:06.209Z,4.80
2019-01-20T12:49:37.082Z,4.70
2019-01-20T12:52:07.943Z,4.90
2019-01-20T12:54:38.757Z,5.70
2019-01-20T12:57:09.519Z,6.30
2019-01-20T12:59:40.389Z,5.60
2019-01-20T13:02:10.993Z,5.10
2019-01-20T13:04:42.641Z,4.60
2019-01-20T13:07:13.724Z,3.60
2019-01-20T13:09:44.365Z,3.10
2019-01-20T13:12:15.051Z,3.00
2019-01-20T13:14:46.171Z,2.50
2019-01-20T13:17:16.802Z,2.00
2019-01-20T13:19:47.353Z,1.80
2019-01-20T13:22:18.202Z,1.70
2019-01-20T13:24:48.762Z,1.50
2019-01-20T13:27:19.620Z,1.20
2019-01-20T13:29:50.318Z,1.10
2019-01-20T13:32:21.090Z,1.00
2019-01-20T13:34:51.774Z,0.70
2019-01-20T13:37:22.454Z,0.40
2019-01-20T13:39:53.424Z,0.20
2019-01-20T13:42:24.310Z,0.20
2019-01-20T13:44:55.002Z,0.20
2019-01-20T13:47:25.815Z,0.20
2019-01-20T13:49:56.306Z,0.30
2019-01-20T13:52:26.696Z,0.20
2019-01-20T13:54:57.452Z,0.00
2019-01-20T13:57:28.090Z,-0.10
2019-01-20T13:59:58.760Z,-0.10
2019-01-20T14:02:29.537Z,-0.10
2019-01-20T14:05:00.252Z,-0.20
2019-01-20T14:07:31.808Z,-0.30
2019-01-20T14:10:14.118Z,-0.30
2019-01-20T14:12:45.870Z,-0.40
2019-01-20T14:15:16.783Z,-0.50
2019-01-20T14:17:47.428Z,-0.30
2019-01-20T14:20:19.859Z,-0.30
2019-01-20T14:22:50.703Z,-0.40
2019-01-20T14:25:23.151Z,-0.60
2019-01-20T14:27:53.871Z,-0.70
2019-01-20T14:30:26.689Z,-0.80
2019-01-20T14:32:57.320Z,-0.80
2019-01-20T14:35:35.085Z,-0.80
2019-01-20T14:38:07.029Z,-0.90
2019-01-20T14:40:37.680Z,-1.00
2019-01-20T14:43:08.424Z,-0.90
2019-01-20T14:45:39.403Z,-0.90
2019-01-20T14:48:10.156Z,-1.00
2019-01-20T14:50:40.959Z,-1.00
2019-01-20T14:53:11.809Z,-1.10
2019-01-20T14:55:42.621Z,-1.10
2019-01-20T14:58:13.684Z,-1.20
2019-01-20T15:00:44.715Z,-1.30
2019-01-20T15:03:15.503Z,-1.30
2019-01-20T15:05:47.298Z,-1.50
2019-01-20T15:08:18.107Z,-1.50
2019-01-20T15:10:49.024Z,-1.50
2019-01-20T15:13:19.951Z,-1.50
2019-01-20T15:15:50.568Z,-1.60
2019-01-20T15:18:21.501Z,-1.70
2019-01-20T15:20:52.366Z,-1.70
2019-01-20T15:23:22.854Z,-1.70
2019-01-20T15:25:53.738Z,-1.70
2019-01-20T15:28:24.570Z,-1.70
2019-01-20T15:30:55.661Z,-1.70
2019-01-20T15:33:26.530Z,-1.80
2019-01-20T15:35:57.474Z,-1.80
2019-01-20T15:38:27.867Z,-1.80
2019-01-20T15:40:58.834Z,-1.80
2019-01-20T15:43:40.856Z,-1.70
2019-01-20T15:46:11.922Z,-1.60
2019-01-20T15:48:42.685Z,-1.60
2019-01-20T15:51:13.793Z,-1.60
2019-01-20T15:53:44.619Z,-1.40
2019-01-20T15:56:15.430Z,-1.30
2019-01-20T15:58:46.157Z,-1.30
2019-01-20T16:01:16.961Z,-1.20
2019-01-20T16:03:48.159Z,-1.20
2019-01-20T16:06:18.956Z,-1.20
2019-01-20T16:08:49.713Z,-1.20
2019-01-20T16:11:20.499Z,-1.20
2019-01-20T16:13:51.687Z,-1.20
2019-01-20T16:16:22.472Z,-1.30
2019-01-20T16:18:53.014Z,-1.30
2019-01-20T16:21:23.927Z,-1.40
2019-01-20T16:23:54.595Z,-1.40
2019-01-20T16:26:26.603Z,-1.30
2019-01-20T16:28:57.291Z,-1.40
2019-01-20T16:31:28.287Z,-1.50
2019-01-20T16:33:59.377Z,-1.40
2019-01-20T16:36:30.083Z,-1.40
2019-01-20T16:39:00.735Z,-1.40
2019-01-20T16:41:33.045Z,-1.30
2019-01-20T16:44:03.795Z,-1.20
2019-01-20T16:46:34.549Z,-1.10
2019-01-20T16:49:06.231Z,-1.20
2019-01-20T16:51:36.714Z,-1.20
2019-01-20T16:54:13.999Z,-1.30
2019-01-20T16:56:44.836Z,-1.30
2019-01-20T16:59:16.043Z,-1.30
2019-01-20T17:01:47.518Z,-1.40
2019-01-20T17:04:18.505Z,-1.40
2019-01-20T17:06:49.100Z,-1.40
2019-01-20T17:09:19.936Z,-1.40
2019-01-20T17:11:50.468Z,-1.50
2019-01-20T17:14:21.394Z,-1.60
2019-01-20T17:16:52.366Z,-1.60
2019-01-20T17:19:23.176Z,-1.60
2019-01-20T17:21:54.187Z,-1.60
2019-01-20T17:24:25.030Z,-1.60
2019-01-20T17:26:56.086Z,-1.70
2019-01-20T17:29:26.671Z,-1.70
2019-01-20T17:31:57.436Z,-1.70
2019-01-20T17:34:28.482Z,-1.60
2019-01-20T17:37:04.286Z,-1.60
2019-01-20T17:39:35.014Z,-1.60
2019-01-20T17:42:06.104Z,-1.60
2019-01-20T17:44:36.790Z,-1.70
2019-01-20T17:47:07.618Z,-1.70
2019-01-20T17:49:38.469Z,-1.80
2019-01-20T17:52:09.433Z,-1.80
2019-01-20T17:54:40.475Z,-1.80
2019-01-20T17:57:11.047Z,-1.90
2019-01-20T17:59:41.978Z,-1.90
2019-01-20T18:02:12.582Z,-2.00
2019-01-20T18:04:43.522Z,-2.00
2019-01-20T18:07:14.703Z,-1.90
2019-01-20T18:09:45.428Z,-1.90
2019-01-20T18:12:16.191Z,-1.90
2019-01-20T18:14:47.097Z,-1.90
2019-01-20T18:17:17.999Z,-1.90
2019-01-20T18:19:48.807Z,-1.90
2019-01-20T18:22:20.258Z,-1.90
2019-01-20T18:24:50.934Z,-1.80
2019-01-20T18:27:21.471Z,-1.80
2019-01-20T18:29:52.019Z,-1.80
2019-01-20T18:32:22.855Z,-1.80
2019-01-20T18:34:53.528Z,-1.90
2019-01-20T18:37:24.541Z,-1.80
2019-01-20T18:39:55.281Z,-1.80
2019-01-20T18:42:26.036Z,-1.80
2019-01-20T18:44:56.751Z,-1.80
2019-01-20T18:47:27.548Z,-1.80
2019-01-20T18:49:58.360Z,-1.80
2019-01-20T18:52:28.944Z,-1.90
2019-01-20T18:54:59.978Z,-1.90
2019-01-20T18:57:30.715Z,-1.80
2019-01-20T19:00:01.489Z,-1.90
2019-01-20T19:02:33.728Z,-1.90
2019-01-20T19:05:06.059Z,-2.00
2019-01-20T19:07:37.226Z,-2.10
2019-01-20T19:10:09.356Z,-2.20
2019-01-20T19:12:40.568Z,-2.20
2019-01-20T19:15:13.044Z,-2.20
2019-01-20T19:17:43.714Z,-2.30
2019-01-20T19:20:16.873Z,-2.30
2019-01-20T19:22:48.465Z,-2.40
2019-01-20T19:25:19.301Z,-2.40
2019-01-20T19:27:50.234Z,-2.40
2019-01-20T19:30:29.166Z,-2.40
2019-01-20T19:33:00.190Z,-2.50
2019-01-20T19:35:31.356Z,-2.50
2019-01-20T19:38:01.887Z,-2.50
2019-01-20T19:40:32.657Z,-2.50
2019-01-20T19:43:03.386Z,-2.50
2019-01-20T19:45:35.368Z,-2.50
2019-01-20T19:48:06.057Z,-2.50
2019-01-20T19:50:36.961Z,-2.50
2019-01-20T19:53:07.938Z,-2.50
2019-01-20T20:08:35.035Z,-2.60
2019-01-20T20:11:06.432Z,-2.60
2019-01-20T20:13:37.874Z,-2.60
2019-01-20T20:16:08.751Z,-2.70
2019-01-20T20:18:41.678Z,-2.80
2019-01-20T20:21:12.704Z,-2.80
2019-01-20T20:23:43.585Z,-2.80
2019-01-20T20:26:14.175Z,-2.80
2019-01-20T20:28:44.668Z,-2.80
2019-01-20T20:31:16.480Z,-2.70
2019-01-20T20:33:47.326Z,-2.70
2019-01-20T20:36:17.852Z,-2.70
2019-01-20T20:38:50.286Z,-2.60
2019-01-20T20:41:21.450Z,-2.60
2019-01-20T20:43:52.268Z,-2.60
2019-01-20T20:46:23.224Z,-2.60
2019-01-20T20:48:56.597Z,-2.60
2019-01-20T20:51:28.234Z,-2.50
2019-01-20T20:53:59.374Z,-2.50
2019-01-20T20:56:30.276Z,-2.60
2019-01-20T20:59:00.766Z,-2.60
2019-01-20T21:01:31.400Z,-2.60
2019-01-20T21:04:01.884Z,-2.60
2019-01-20T21:06:32.579Z,-2.60
2019-01-20T21:09:04.208Z,-2.60
2019-01-20T21:11:36.564Z,-2.50
2019-01-20T21:14:08.391Z,-2.50
2019-01-20T21:16:39.047Z,-2.50
2019-01-20T21:19:09.846Z,-2.50
2019-01-20T21:21:40.850Z,-2.50
2019-01-20T21:24:11.483Z,-2.40
2019-01-20T21:26:44.536Z,-2.50
2019-01-20T21:29:14.110Z,-2.40
2019-01-20T21:31:44.555Z,-2.40
2019-01-20T21:34:15.455Z,-2.40
2019-01-20T21:36:46.251Z,-2.40
2019-01-20T21:39:16.940Z,-2.40
2019-01-20T21:41:47.605Z,-2.40
2019-01-20T21:44:18.048Z,-2.40
2019-01-20T21:46:48.834Z,-2.40
2019-01-20T21:49:19.355Z,-2.30
2019-01-20T21:51:49.945Z,-2.30
2019-01-20T21:54:20.683Z,-2.30
2019-01-20T21:56:51.303Z,-2.30
2019-01-20T21:59:22.092Z,-2.30
2019-01-20T22:01:52.917Z,-2.20
2019-01-20T22:04:23.642Z,-2.30
2019-01-20T22:06:54.392Z,-2.30
2019-01-20T22:09:25.052Z,-2.30
2019-01-20T22:11:55.548Z,-2.20
2019-01-20T22:14:26.316Z,-2.20
2019-01-20T22:16:56.835Z,-2.20
2019-01-20T22:19:27.408Z,-2.20
2019-01-20T22:21:57.953Z,-2.20
2019-01-20T22:24:28.464Z,-2.20
2019-01-20T22:26:58.978Z,-2.20
2019-01-20T22:29:29.608Z,-2.10
2019-01-20T22:32:00.142Z,-2.10
2019-01-20T22:34:30.806Z,-2.20
2019-01-20T22:37:01.262Z,-2.20
2019-01-20T22:39:31.788Z,-2.20
2019-01-20T22:42:02.564Z,-2.30
2019-01-20T22:44:33.316Z,-2.30
2019-01-20T22:47:03.792Z,-2.30
2019-01-20T22:49:35.722Z,-2.40
2019-01-20T22:52:06.448Z,-2.40
2019-01-20T22:54:37.135Z,-2.40
2019-01-20T22:57:07.591Z,-2.50
2019-01-20T22:59:38.060Z,-2.50
2019-01-20T23:02:10.725Z,-2.50
2019-01-20T23:04:41.275Z,-2.40
2019-01-20T23:07:12.069Z,-2.40
2019-01-20T23:09:42.523Z,-2.40
2019-01-20T23:12:13.157Z,-2.40
2019-01-20T23:14:43.763Z,-2.50
2019-01-20T23:17:14.291Z,-2.40
2019-01-20T23:19:44.797Z,-2.40
2019-01-20T23:22:15.285Z,-2.50
2019-01-20T23:24:45.883Z,-2.50
2019-01-20T23:27:16.385Z,-2.40
2019-01-20T23:29:47.004Z,-2.50
2019-01-20T23:32:17.677Z,-2.50
2019-01-20T23:34:48.169Z,-2.50
2019-01-20T23:37:18.814Z,-2.50
2019-01-20T23:39:49.607Z,-2.50
2019-01-20T23:42:20.138Z,-2.50
2019-01-20T23:44:50.770Z,-2.60
2019-01-20T23:47:21.400Z,-2.60
2019-01-20T23:49:52.032Z,-2.50
2019-01-20T23:52:22.638Z,-2.50
2019-01-20T23:54:54.010Z,-2.50
2019-01-20T23:57:24.542Z,-2.40
2019-01-20T23:59:54.950Z,-2.30
